sensor_id;sensor_type;location;lat;lon;timestamp;P1;durP1;ratioP1;P2;durP2;ratioP2
10823;SDS011;39116;59.332;18.034;2022-10-03T00:02:17;21.27;;;19.05;;
10823;SDS011;39116;59.332;18.034;2022-10-03T00:04:52;23.05;;;19.85;;
10823;SDS011;39116;59.332;18.034;2022-10-03T00:07:32;21.58;;;19.35;;
10823;SDS011;39116;59.332;18.034;2022-10-03T00:10:06;23.33;;;20.45;;
10823;SDS011;39116;59.332;18.034;2022-10-03T00:12:43;22.08;;;19.15;;
10823;SDS011;39116;59.332;18.034;2022-10-03T00:15:14;23.10;;;19.42;;
10823;SDS011;39116;59.332;18.034;2022-10-03T00:17:44;21.35;;;19.15;;
10823;SDS011;39116;59.332;18.034;2022-10-03T00:20:27;25.63;;;19.50;;
10823;SDS011;39116;59.332;18.034;2022-10-03T00:22:58;22.10;;;18.75;;
10823;SDS011;39116;59.332;18.034;2022-10-03T00:25:29;20.35;;;18.05;;
10823;SDS011;39116;59.332;18.034;2022-10-03T00:28:11;22.92;;;18.50;;
10823;SDS011;39116;59.332;18.034;2022-10-03T00:30:50;20.02;;;17.42;;
10823;SDS011;39116;59.332;18.034;2022-10-03T00:33:23;21.30;;;19.02;;
10823;SDS011;39116;59.332;18.034;2022-10-03T00:35:55;22.90;;;18.92;;
10823;SDS011;39116;59.332;18.034;2022-10-03T00:41:16;20.65;;;18.48;;
10823;SDS011;39116;59.332;18.034;2022-10-03T00:47:00;21.58;;;19.35;;
10823;SDS011;39116;59.332;18.034;2022-10-03T00:52:26;23.08;;;19.52;;
10823;SDS011;39116;59.332;18.034;2022-10-03T00:55:00;21.90;;;18.30;;
10823;SDS011;39116;59.332;18.034;2022-10-03T00:57:38;20.85;;;18.20;;
10823;SDS011;39116;59.332;18.034;2022-10-03T01:00:13;20.75;;;18.48;;
10823;SDS011;39116;59.332;18.034;2022-10-03T01:02:43;21.40;;;18.50;;
10823;SDS011;39116;59.332;18.034;2022-10-03T01:05:14;20.48;;;18.17;;
10823;SDS011;39116;59.332;18.034;2022-10-03T01:10:28;20.05;;;17.50;;
10823;SDS011;39116;59.332;18.034;2022-10-03T01:13:02;21.52;;;19.08;;
10823;SDS011;39116;59.332;18.034;2022-10-03T01:15:37;22.88;;;19.58;;
10823;SDS011;39116;59.332;18.034;2022-10-03T01:18:09;20.23;;;17.92;;
10823;SDS011;39116;59.332;18.034;2022-10-03T01:20:41;20.33;;;18.23;;
10823;SDS011;39116;59.332;18.034;2022-10-03T01:23:24;21.52;;;19.35;;
10823;SDS011;39116;59.332;18.034;2022-10-03T01:25:58;21.85;;;19.35;;
10823;SDS011;39116;59.332;18.034;2022-10-03T01:28:36;22.45;;;19.98;;
10823;SDS011;39116;59.332;18.034;2022-10-03T01:31:23;22.58;;;19.88;;
10823;SDS011;39116;59.332;18.034;2022-10-03T01:33:52;20.33;;;18.23;;
10823;SDS011;39116;59.332;18.034;2022-10-03T01:36:22;21.38;;;19.17;;
10823;SDS011;39116;59.332;18.034;2022-10-03T01:38:51;21.45;;;18.88;;
10823;SDS011;39116;59.332;18.034;2022-10-03T01:41:21;21.98;;;19.73;;
10823;SDS011;39116;59.332;18.034;2022-10-03T01:43:52;22.70;;;18.80;;
10823;SDS011;39116;59.332;18.034;2022-10-03T01:46:20;21.73;;;19.17;;
10823;SDS011;39116;59.332;18.034;2022-10-03T01:48:50;21.83;;;19.13;;
10823;SDS011;39116;59.332;18.034;2022-10-03T01:51:20;21.60;;;19.30;;
10823;SDS011;39116;59.332;18.034;2022-10-03T01:54:00;22.33;;;19.90;;
10823;SDS011;39116;59.332;18.034;2022-10-03T01:56:34;22.40;;;19.60;;
10823;SDS011;39116;59.332;18.034;2022-10-03T01:59:03;22.60;;;19.60;;
10823;SDS011;39116;59.332;18.034;2022-10-03T02:01:33;22.42;;;20.02;;
10823;SDS011;39116;59.332;18.034;2022-10-03T02:04:02;22.05;;;19.60;;
10823;SDS011;39116;59.332;18.034;2022-10-03T02:06:33;22.60;;;19.65;;
10823;SDS011;39116;59.332;18.034;2022-10-03T02:09:04;23.88;;;19.73;;
10823;SDS011;39116;59.332;18.034;2022-10-03T02:11:34;23.08;;;19.77;;
10823;SDS011;39116;59.332;18.034;2022-10-03T02:14:06;22.90;;;19.48;;
10823;SDS011;39116;59.332;18.034;2022-10-03T02:16:41;24.52;;;20.90;;
10823;SDS011;39116;59.332;18.034;2022-10-03T02:19:11;24.02;;;20.38;;
10823;SDS011;39116;59.332;18.034;2022-10-03T02:21:44;22.15;;;19.75;;
10823;SDS011;39116;59.332;18.034;2022-10-03T02:24:16;25.23;;;20.48;;
10823;SDS011;39116;59.332;18.034;2022-10-03T02:26:55;22.88;;;19.63;;
10823;SDS011;39116;59.332;18.034;2022-10-03T02:29:37;24.80;;;20.40;;
10823;SDS011;39116;59.332;18.034;2022-10-03T02:32:25;25.30;;;21.35;;
10823;SDS011;39116;59.332;18.034;2022-10-03T02:35:04;23.80;;;19.17;;
10823;SDS011;39116;59.332;18.034;2022-10-03T02:37:35;23.95;;;20.33;;
10823;SDS011;39116;59.332;18.034;2022-10-03T02:45:52;23.85;;;20.17;;
10823;SDS011;39116;59.332;18.034;2022-10-03T02:51:22;24.70;;;19.65;;
10823;SDS011;39116;59.332;18.034;2022-10-03T02:54:07;23.17;;;20.27;;
10823;SDS011;39116;59.332;18.034;2022-10-03T02:59:37;23.17;;;20.70;;
10823;SDS011;39116;59.332;18.034;2022-10-03T03:02:27;22.35;;;19.42;;
10823;SDS011;39116;59.332;18.034;2022-10-03T03:05:08;23.83;;;20.13;;
10823;SDS011;39116;59.332;18.034;2022-10-03T03:07:43;22.90;;;20.10;;
10823;SDS011;39116;59.332;18.034;2022-10-03T03:13:20;21.85;;;19.20;;
10823;SDS011;39116;59.332;18.034;2022-10-03T03:16:06;23.85;;;20.30;;
10823;SDS011;39116;59.332;18.034;2022-10-03T03:18:38;21.70;;;19.40;;
10823;SDS011;39116;59.332;18.034;2022-10-03T03:21:16;21.45;;;18.38;;
10823;SDS011;39116;59.332;18.034;2022-10-03T03:23:49;20.30;;;18.20;;
10823;SDS011;39116;59.332;18.034;2022-10-03T03:26:25;20.38;;;17.27;;
10823;SDS011;39116;59.332;18.034;2022-10-03T03:28:59;21.05;;;18.00;;
10823;SDS011;39116;59.332;18.034;2022-10-03T03:31:30;20.23;;;18.13;;
10823;SDS011;39116;59.332;18.034;2022-10-03T03:34:03;19.98;;;17.85;;
10823;SDS011;39116;59.332;18.034;2022-10-03T03:36:34;21.27;;;18.65;;
10823;SDS011;39116;59.332;18.034;2022-10-03T03:39:05;21.17;;;18.27;;
10823;SDS011;39116;59.332;18.034;2022-10-03T03:44:31;19.67;;;17.58;;
10823;SDS011;39116;59.332;18.034;2022-10-03T03:47:07;20.17;;;17.48;;
10823;SDS011;39116;59.332;18.034;2022-10-03T03:49:45;19.27;;;17.25;;
10823;SDS011;39116;59.332;18.034;2022-10-03T03:52:22;19.38;;;16.80;;
10823;SDS011;39116;59.332;18.034;2022-10-03T03:55:03;17.90;;;16.10;;
10823;SDS011;39116;59.332;18.034;2022-10-03T03:57:47;19.23;;;17.17;;
10823;SDS011;39116;59.332;18.034;2022-10-03T04:00:16;19.02;;;17.02;;
10823;SDS011;39116;59.332;18.034;2022-10-03T04:02:51;18.52;;;16.63;;
10823;SDS011;39116;59.332;18.034;2022-10-03T04:05:32;19.20;;;16.98;;
10823;SDS011;39116;59.332;18.034;2022-10-03T04:08:08;19.75;;;17.65;;
10823;SDS011;39116;59.332;18.034;2022-10-03T04:10:41;18.40;;;16.50;;
10823;SDS011;39116;59.332;18.034;2022-10-03T04:13:15;19.25;;;16.20;;
10823;SDS011;39116;59.332;18.034;2022-10-03T04:15:48;22.02;;;17.05;;
10823;SDS011;39116;59.332;18.034;2022-10-03T04:18:29;22.02;;;18.38;;
10823;SDS011;39116;59.332;18.034;2022-10-03T04:21:21;18.85;;;16.92;;
10823;SDS011;39116;59.332;18.034;2022-10-03T04:23:54;18.13;;;16.20;;
10823;SDS011;39116;59.332;18.034;2022-10-03T04:26:28;22.80;;;17.13;;
10823;SDS011;39116;59.332;18.034;2022-10-03T04:29:09;20.83;;;17.55;;
10823;SDS011;39116;59.332;18.034;2022-10-03T04:31:45;20.02;;;17.23;;
10823;SDS011;39116;59.332;18.034;2022-10-03T04:34:32;17.80;;;15.98;;
10823;SDS011;39116;59.332;18.034;2022-10-03T04:37:10;19.15;;;16.75;;
10823;SDS011;39116;59.332;18.034;2022-10-03T04:39:41;18.23;;;16.23;;
10823;SDS011;39116;59.332;18.034;2022-10-03T04:42:13;18.83;;;16.83;;
10823;SDS011;39116;59.332;18.034;2022-10-03T04:44:54;20.63;;;16.38;;
10823;SDS011;39116;59.332;18.034;2022-10-03T04:47:25;19.45;;;16.80;;
10823;SDS011;39116;59.332;18.034;2022-10-03T04:49:55;19.10;;;17.17;;
10823;SDS011;39116;59.332;18.034;2022-10-03T04:52:29;18.80;;;16.77;;
10823;SDS011;39116;59.332;18.034;2022-10-03T04:55:05;18.95;;;16.77;;
10823;SDS011;39116;59.332;18.034;2022-10-03T04:57:35;20.00;;;17.80;;
10823;SDS011;39116;59.332;18.034;2022-10-03T05:00:13;19.00;;;17.10;;
10823;SDS011;39116;59.332;18.034;2022-10-03T05:02:46;19.55;;;16.48;;
10823;SDS011;39116;59.332;18.034;2022-10-03T05:05:24;17.52;;;15.73;;
10823;SDS011;39116;59.332;18.034;2022-10-03T05:07:56;18.35;;;16.10;;
10823;SDS011;39116;59.332;18.034;2022-10-03T05:10:29;16.67;;;14.98;;
10823;SDS011;39116;59.332;18.034;2022-10-03T05:13:01;17.02;;;14.98;;
10823;SDS011;39116;59.332;18.034;2022-10-03T05:15:31;17.63;;;15.80;;
10823;SDS011;39116;59.332;18.034;2022-10-03T05:18:00;16.50;;;14.80;;
10823;SDS011;39116;59.332;18.034;2022-10-03T05:20:33;19.30;;;17.30;;
10823;SDS011;39116;59.332;18.034;2022-10-03T05:23:10;18.38;;;16.45;;
10823;SDS011;39116;59.332;18.034;2022-10-03T05:25:39;19.60;;;17.60;;
10823;SDS011;39116;59.332;18.034;2022-10-03T05:28:12;19.33;;;17.40;;
10823;SDS011;39116;59.332;18.034;2022-10-03T05:30:41;21.48;;;18.77;;
10823;SDS011;39116;59.332;18.034;2022-10-03T05:33:13;19.38;;;17.30;;
10823;SDS011;39116;59.332;18.034;2022-10-03T05:35:43;19.33;;;17.05;;
10823;SDS011;39116;59.332;18.034;2022-10-03T05:38:27;23.95;;;18.13;;
10823;SDS011;39116;59.332;18.034;2022-10-03T05:41:02;17.90;;;16.10;;
10823;SDS011;39116;59.332;18.034;2022-10-03T05:43:35;21.35;;;17.45;;
10823;SDS011;39116;59.332;18.034;2022-10-03T05:46:10;21.50;;;16.20;;
10823;SDS011;39116;59.332;18.034;2022-10-03T05:48:43;20.33;;;16.88;;
10823;SDS011;39116;59.332;18.034;2022-10-03T05:51:21;19.85;;;16.90;;
10823;SDS011;39116;59.332;18.034;2022-10-03T05:59:35;21.98;;;17.63;;
10823;SDS011;39116;59.332;18.034;2022-10-03T06:02:19;20.23;;;16.63;;
10823;SDS011;39116;59.332;18.034;2022-10-03T06:04:56;19.02;;;16.25;;
10823;SDS011;39116;59.332;18.034;2022-10-03T06:07:28;19.67;;;16.98;;
10823;SDS011;39116;59.332;18.034;2022-10-03T06:12:43;18.83;;;15.60;;
10823;SDS011;39116;59.332;18.034;2022-10-03T06:15:20;21.10;;;16.65;;
10823;SDS011;39116;59.332;18.034;2022-10-03T06:17:54;20.05;;;17.67;;
10823;SDS011;39116;59.332;18.034;2022-10-03T06:26:00;19.00;;;16.45;;
10823;SDS011;39116;59.332;18.034;2022-10-03T06:28:46;18.30;;;16.40;;
10823;SDS011;39116;59.332;18.034;2022-10-03T06:34:14;17.55;;;15.68;;
10823;SDS011;39116;59.332;18.034;2022-10-03T06:37:06;19.92;;;15.70;;
10823;SDS011;39116;59.332;18.034;2022-10-03T06:42:34;16.77;;;14.25;;
10823;SDS011;39116;59.332;18.034;2022-10-03T06:48:06;18.50;;;14.93;;
10823;SDS011;39116;59.332;18.034;2022-10-03T06:50:50;16.02;;;14.43;;
10823;SDS011;39116;59.332;18.034;2022-10-03T06:53:30;15.68;;;14.07;;
10823;SDS011;39116;59.332;18.034;2022-10-03T07:01:47;17.90;;;15.68;;
10823;SDS011;39116;59.332;18.034;2022-10-03T07:04:21;15.13;;;13.57;;
10823;SDS011;39116;59.332;18.034;2022-10-03T07:06:55;15.10;;;13.60;;
10823;SDS011;39116;59.332;18.034;2022-10-03T07:15:11;16.13;;;14.43;;
10823;SDS011;39116;59.332;18.034;2022-10-03T07:20:37;16.63;;;13.90;;
10823;SDS011;39116;59.332;18.034;2022-10-03T07:23:25;16.65;;;14.88;;
10823;SDS011;39116;59.332;18.034;2022-10-03T07:25:58;15.70;;;14.10;;
10823;SDS011;39116;59.332;18.034;2022-10-03T07:31:27;15.15;;;13.60;;
10823;SDS011;39116;59.332;18.034;2022-10-03T07:34:13;16.45;;;14.75;;
10823;SDS011;39116;59.332;18.034;2022-10-03T07:36:50;16.75;;;14.45;;
10823;SDS011;39116;59.332;18.034;2022-10-03T07:42:26;17.15;;;15.00;;
10823;SDS011;39116;59.332;18.034;2022-10-03T07:45:06;17.38;;;15.52;;
10823;SDS011;39116;59.332;18.034;2022-10-03T07:53:22;17.83;;;15.02;;
10823;SDS011;39116;59.332;18.034;2022-10-03T07:55:58;15.70;;;14.00;;
10823;SDS011;39116;59.332;18.034;2022-10-03T08:01:26;16.52;;;14.27;;
10823;SDS011;39116;59.332;18.034;2022-10-03T08:04:00;16.58;;;14.75;;
10823;SDS011;39116;59.332;18.034;2022-10-03T08:06:34;17.20;;;14.90;;
10823;SDS011;39116;59.332;18.034;2022-10-03T08:12:00;17.17;;;14.85;;
10823;SDS011;39116;59.332;18.034;2022-10-03T08:14:31;16.77;;;13.90;;
10823;SDS011;39116;59.332;18.034;2022-10-03T08:17:28;16.85;;;13.52;;
10823;SDS011;39116;59.332;18.034;2022-10-03T08:20:06;14.75;;;12.88;;
10823;SDS011;39116;59.332;18.034;2022-10-03T08:22:41;11.50;;;10.30;;
10823;SDS011;39116;59.332;18.034;2022-10-03T08:30:40;14.70;;;12.80;;
10823;SDS011;39116;59.332;18.034;2022-10-03T08:41:31;15.57;;;13.98;;
10823;SDS011;39116;59.332;18.034;2022-10-03T08:46:52;15.93;;;14.15;;
10823;SDS011;39116;59.332;18.034;2022-10-03T08:49:33;17.83;;;14.90;;
10823;SDS011;39116;59.332;18.034;2022-10-03T08:52:07;16.80;;;15.00;;
10823;SDS011;39116;59.332;18.034;2022-10-03T08:54:46;16.38;;;14.65;;
10823;SDS011;39116;59.332;18.034;2022-10-03T08:57:22;17.75;;;14.57;;
10823;SDS011;39116;59.332;18.034;2022-10-03T09:00:03;16.35;;;14.25;;
10823;SDS011;39116;59.332;18.034;2022-10-03T09:05:27;16.92;;;14.57;;
10823;SDS011;39116;59.332;18.034;2022-10-03T09:10:57;14.05;;;12.65;;
10823;SDS011;39116;59.332;18.034;2022-10-03T09:16:24;14.65;;;12.73;;
10823;SDS011;39116;59.332;18.034;2022-10-03T09:19:02;18.55;;;12.98;;
10823;SDS011;39116;59.332;18.034;2022-10-03T09:24:25;16.33;;;12.75;;
10823;SDS011;39116;59.332;18.034;2022-10-03T09:27:01;14.52;;;12.43;;
10823;SDS011;39116;59.332;18.034;2022-10-03T09:29:43;16.27;;;12.70;;
10823;SDS011;39116;59.332;18.034;2022-10-03T09:40:58;16.08;;;13.57;;
10823;SDS011;39116;59.332;18.034;2022-10-03T09:43:41;13.93;;;12.48;;
10823;SDS011;39116;59.332;18.034;2022-10-03T09:46:26;15.07;;;12.77;;
10823;SDS011;39116;59.332;18.034;2022-10-03T09:49:16;14.57;;;13.02;;
10823;SDS011;39116;59.332;18.034;2022-10-03T09:51:51;17.05;;;14.30;;
10823;SDS011;39116;59.332;18.034;2022-10-03T09:54:24;15.68;;;13.80;;
10823;SDS011;39116;59.332;18.034;2022-10-03T09:59:54;14.98;;;13.48;;
10823;SDS011;39116;59.332;18.034;2022-10-03T10:02:42;14.35;;;12.00;;
10823;SDS011;39116;59.332;18.034;2022-10-03T10:05:30;13.82;;;12.43;;
10823;SDS011;39116;59.332;18.034;2022-10-03T10:08:11;16.00;;;13.63;;
10823;SDS011;39116;59.332;18.034;2022-10-03T10:10:55;13.98;;;12.48;;
10823;SDS011;39116;59.332;18.034;2022-10-03T10:16:29;14.23;;;12.70;;
10823;SDS011;39116;59.332;18.034;2022-10-03T10:22:00;14.10;;;12.38;;
10823;SDS011;39116;59.332;18.034;2022-10-03T10:24:45;14.90;;;12.80;;
10823;SDS011;39116;59.332;18.034;2022-10-03T10:27:34;14.43;;;12.82;;
10823;SDS011;39116;59.332;18.034;2022-10-03T10:30:19;16.67;;;13.48;;
10823;SDS011;39116;59.332;18.034;2022-10-03T10:35:47;14.45;;;12.55;;
10823;SDS011;39116;59.332;18.034;2022-10-03T10:41:11;13.60;;;12.18;;
10823;SDS011;39116;59.332;18.034;2022-10-03T10:46:33;15.60;;;13.10;;
10823;SDS011;39116;59.332;18.034;2022-10-03T10:55:32;17.92;;;14.20;;
10823;SDS011;39116;59.332;18.034;2022-10-03T10:58:15;15.55;;;13.95;;
10823;SDS011;39116;59.332;18.034;2022-10-03T11:00:58;16.00;;;14.20;;
10823;SDS011;39116;59.332;18.034;2022-10-03T11:03:56;17.13;;;13.35;;
10823;SDS011;39116;59.332;18.034;2022-10-03T11:06:37;19.67;;;15.63;;
10823;SDS011;39116;59.332;18.034;2022-10-03T11:09:22;17.90;;;14.45;;
10823;SDS011;39116;59.332;18.034;2022-10-03T11:12:08;16.73;;;14.23;;
10823;SDS011;39116;59.332;18.034;2022-10-03T11:23:06;16.25;;;14.52;;
10823;SDS011;39116;59.332;18.034;2022-10-03T11:36:46;15.32;;;13.27;;
10823;SDS011;39116;59.332;18.034;2022-10-03T11:39:16;16.77;;;14.18;;
10823;SDS011;39116;59.332;18.034;2022-10-03T11:41:45;15.45;;;13.15;;
10823;SDS011;39116;59.332;18.034;2022-10-03T11:44:19;16.20;;;14.60;;
10823;SDS011;39116;59.332;18.034;2022-10-03T11:46:51;16.92;;;14.38;;
10823;SDS011;39116;59.332;18.034;2022-10-03T11:49:33;16.95;;;14.50;;
10823;SDS011;39116;59.332;18.034;2022-10-03T11:52:05;18.58;;;14.50;;
10823;SDS011;39116;59.332;18.034;2022-10-03T11:54:36;16.55;;;14.65;;
10823;SDS011;39116;59.332;18.034;2022-10-03T11:57:05;18.08;;;15.80;;
10823;SDS011;39116;59.332;18.034;2022-10-03T11:59:35;19.52;;;16.65;;
10823;SDS011;39116;59.332;18.034;2022-10-03T12:02:09;19.05;;;16.40;;
10823;SDS011;39116;59.332;18.034;2022-10-03T12:04:43;19.35;;;16.50;;
10823;SDS011;39116;59.332;18.034;2022-10-03T12:07:14;19.15;;;16.63;;
10823;SDS011;39116;59.332;18.034;2022-10-03T12:10:02;17.23;;;15.38;;
10823;SDS011;39116;59.332;18.034;2022-10-03T12:12:32;17.90;;;15.88;;
10823;SDS011;39116;59.332;18.034;2022-10-03T12:15:01;19.63;;;15.98;;
10823;SDS011;39116;59.332;18.034;2022-10-03T12:17:31;18.05;;;16.13;;
10823;SDS011;39116;59.332;18.034;2022-10-03T12:19:59;23.20;;;17.05;;
10823;SDS011;39116;59.332;18.034;2022-10-03T12:22:33;18.38;;;15.63;;
10823;SDS011;39116;59.332;18.034;2022-10-03T12:25:05;17.35;;;15.55;;
10823;SDS011;39116;59.332;18.034;2022-10-03T12:27:41;17.60;;;15.70;;
10823;SDS011;39116;59.332;18.034;2022-10-03T12:30:12;17.48;;;15.63;;
10823;SDS011;39116;59.332;18.034;2022-10-03T12:32:41;17.13;;;15.02;;
10823;SDS011;39116;59.332;18.034;2022-10-03T12:35:21;17.65;;;15.75;;
10823;SDS011;39116;59.332;18.034;2022-10-03T12:38:01;16.83;;;14.80;;
10823;SDS011;39116;59.332;18.034;2022-10-03T12:40:30;16.85;;;14.77;;
10823;SDS011;39116;59.332;18.034;2022-10-03T12:43:03;17.45;;;15.52;;
10823;SDS011;39116;59.332;18.034;2022-10-03T12:45:33;17.35;;;15.48;;
10823;SDS011;39116;59.332;18.034;2022-10-03T12:48:04;17.35;;;14.93;;
10823;SDS011;39116;59.332;18.034;2022-10-03T12:50:37;17.70;;;15.43;;
10823;SDS011;39116;59.332;18.034;2022-10-03T12:53:21;17.17;;;15.23;;
10823;SDS011;39116;59.332;18.034;2022-10-03T12:55:54;20.05;;;16.35;;
10823;SDS011;39116;59.332;18.034;2022-10-03T12:58:27;17.67;;;15.63;;
10823;SDS011;39116;59.332;18.034;2022-10-03T13:00:58;17.80;;;15.55;;
10823;SDS011;39116;59.332;18.034;2022-10-03T13:03:31;16.98;;;15.15;;
10823;SDS011;39116;59.332;18.034;2022-10-03T13:06:16;19.25;;;15.20;;
10823;SDS011;39116;59.332;18.034;2022-10-03T13:08:52;19.08;;;15.27;;
10823;SDS011;39116;59.332;18.034;2022-10-03T13:11:25;17.13;;;15.30;;
10823;SDS011;39116;59.332;18.034;2022-10-03T13:14:00;16.35;;;14.65;;
10823;SDS011;39116;59.332;18.034;2022-10-03T13:16:31;16.92;;;15.10;;
10823;SDS011;39116;59.332;18.034;2022-10-03T13:19:01;16.83;;;15.02;;
10823;SDS011;39116;59.332;18.034;2022-10-03T13:21:36;16.98;;;14.93;;
10823;SDS011;39116;59.332;18.034;2022-10-03T13:24:10;17.58;;;15.15;;
10823;SDS011;39116;59.332;18.034;2022-10-03T13:26:47;16.50;;;14.80;;
10823;SDS011;39116;59.332;18.034;2022-10-03T13:29:19;17.58;;;14.52;;
10823;SDS011;39116;59.332;18.034;2022-10-03T13:31:50;16.08;;;14.38;;
10823;SDS011;39116;59.332;18.034;2022-10-03T13:34:22;17.48;;;13.55;;
10823;SDS011;39116;59.332;18.034;2022-10-03T13:36:50;15.57;;;13.98;;
10823;SDS011;39116;59.332;18.034;2022-10-03T13:39:21;14.68;;;13.02;;
10823;SDS011;39116;59.332;18.034;2022-10-03T13:41:56;15.35;;;13.18;;
10823;SDS011;39116;59.332;18.034;2022-10-03T13:44:30;16.58;;;13.65;;
10823;SDS011;39116;59.332;18.034;2022-10-03T13:46:59;14.63;;;13.13;;
10823;SDS011;39116;59.332;18.034;2022-10-03T13:49:28;15.55;;;13.85;;
10823;SDS011;39116;59.332;18.034;2022-10-03T13:51:59;15.40;;;13.02;;
10823;SDS011;39116;59.332;18.034;2022-10-03T13:54:40;16.60;;;13.90;;
10823;SDS011;39116;59.332;18.034;2022-10-03T13:57:13;15.88;;;13.50;;
10823;SDS011;39116;59.332;18.034;2022-10-03T13:59:52;15.52;;;13.93;;
10823;SDS011;39116;59.332;18.034;2022-10-03T14:05:17;13.80;;;12.10;;
10823;SDS011;39116;59.332;18.034;2022-10-03T14:07:49;13.13;;;11.75;;
10823;SDS011;39116;59.332;18.034;2022-10-03T14:13:13;11.20;;;9.98;;
10823;SDS011;39116;59.332;18.034;2022-10-03T14:15:45;11.55;;;10.40;;
10823;SDS011;39116;59.332;18.034;2022-10-03T14:23:50;14.38;;;9.60;;
10823;SDS011;39116;59.332;18.034;2022-10-03T14:26:20;9.32;;;8.40;;
10823;SDS011;39116;59.332;18.034;2022-10-03T14:28:52;9.98;;;8.75;;
10823;SDS011;39116;59.332;18.034;2022-10-03T14:31:23;9.57;;;7.95;;
10823;SDS011;39116;59.332;18.034;2022-10-03T14:33:57;9.07;;;8.18;;
10823;SDS011;39116;59.332;18.034;2022-10-03T14:36:29;7.85;;;7.05;;
10823;SDS011;39116;59.332;18.034;2022-10-03T14:39:02;7.78;;;7.07;;
10823;SDS011;39116;59.332;18.034;2022-10-03T14:41:37;6.72;;;6.13;;
10823;SDS011;39116;59.332;18.034;2022-10-03T14:44:08;7.15;;;6.53;;
10823;SDS011;39116;59.332;18.034;2022-10-03T14:46:38;6.63;;;6.03;;
10823;SDS011;39116;59.332;18.034;2022-10-03T14:49:10;7.55;;;6.85;;
10823;SDS011;39116;59.332;18.034;2022-10-03T14:51:39;7.32;;;6.60;;
10823;SDS011;39116;59.332;18.034;2022-10-03T14:54:15;7.20;;;6.57;;
10823;SDS011;39116;59.332;18.034;2022-10-03T14:56:43;8.65;;;6.57;;
10823;SDS011;39116;59.332;18.034;2022-10-03T14:59:12;7.35;;;6.47;;
10823;SDS011;39116;59.332;18.034;2022-10-03T15:01:45;7.60;;;6.72;;
10823;SDS011;39116;59.332;18.034;2022-10-03T15:04:14;6.70;;;6.10;;
10823;SDS011;39116;59.332;18.034;2022-10-03T15:06:47;6.20;;;5.32;;
10823;SDS011;39116;59.332;18.034;2022-10-03T15:09:19;7.05;;;5.43;;
10823;SDS011;39116;59.332;18.034;2022-10-03T15:11:47;6.72;;;6.00;;
10823;SDS011;39116;59.332;18.034;2022-10-03T15:14:17;6.55;;;5.95;;
10823;SDS011;39116;59.332;18.034;2022-10-03T15:16:46;6.35;;;5.75;;
10823;SDS011;39116;59.332;18.034;2022-10-03T15:19:15;6.63;;;5.65;;
10823;SDS011;39116;59.332;18.034;2022-10-03T15:21:43;5.30;;;4.28;;
10823;SDS011;39116;59.332;18.034;2022-10-03T15:24:12;6.03;;;5.10;;
10823;SDS011;39116;59.332;18.034;2022-10-03T15:26:43;5.78;;;5.22;;
10823;SDS011;39116;59.332;18.034;2022-10-03T15:29:14;5.32;;;4.82;;
10823;SDS011;39116;59.332;18.034;2022-10-03T15:31:43;6.95;;;5.32;;
10823;SDS011;39116;59.332;18.034;2022-10-03T15:34:13;7.40;;;5.38;;
10823;SDS011;39116;59.332;18.034;2022-10-03T15:36:41;6.82;;;5.28;;
10823;SDS011;39116;59.332;18.034;2022-10-03T15:39:15;6.00;;;5.43;;
10823;SDS011;39116;59.332;18.034;2022-10-03T15:41:47;5.93;;;5.05;;
10823;SDS011;39116;59.332;18.034;2022-10-03T15:44:16;5.45;;;4.95;;
10823;SDS011;39116;59.332;18.034;2022-10-03T15:46:47;5.88;;;5.28;;
10823;SDS011;39116;59.332;18.034;2022-10-03T15:49:18;6.57;;;4.97;;
10823;SDS011;39116;59.332;18.034;2022-10-03T15:51:47;5.63;;;5.07;;
10823;SDS011;39116;59.332;18.034;2022-10-03T15:54:17;5.97;;;5.47;;
10823;SDS011;39116;59.332;18.034;2022-10-03T15:56:46;5.47;;;4.97;;
10823;SDS011;39116;59.332;18.034;2022-10-03T15:59:17;6.30;;;5.40;;
10823;SDS011;39116;59.332;18.034;2022-10-03T16:01:46;6.72;;;6.05;;
10823;SDS011;39116;59.332;18.034;2022-10-03T16:04:16;5.95;;;5.43;;
10823;SDS011;39116;59.332;18.034;2022-10-03T16:06:45;6.18;;;5.00;;
10823;SDS011;39116;59.332;18.034;2022-10-03T16:09:15;9.20;;;5.50;;
10823;SDS011;39116;59.332;18.034;2022-10-03T16:11:45;7.28;;;5.40;;
10823;SDS011;39116;59.332;18.034;2022-10-03T16:14:16;7.38;;;6.00;;
10823;SDS011;39116;59.332;18.034;2022-10-03T16:16:47;10.40;;;6.13;;
10823;SDS011;39116;59.332;18.034;2022-10-03T16:19:20;7.65;;;5.97;;
10823;SDS011;39116;59.332;18.034;2022-10-03T16:21:49;9.18;;;5.63;;
10823;SDS011;39116;59.332;18.034;2022-10-03T16:24:21;6.32;;;5.72;;
10823;SDS011;39116;59.332;18.034;2022-10-03T16:26:51;7.47;;;5.78;;
10823;SDS011;39116;59.332;18.034;2022-10-03T16:29:19;6.00;;;5.45;;
10823;SDS011;39116;59.332;18.034;2022-10-03T16:31:49;6.63;;;6.03;;
10823;SDS011;39116;59.332;18.034;2022-10-03T16:34:17;6.32;;;5.70;;
10823;SDS011;39116;59.332;18.034;2022-10-03T16:36:45;7.15;;;5.68;;
10823;SDS011;39116;59.332;18.034;2022-10-03T16:39:15;6.28;;;5.68;;
10823;SDS011;39116;59.332;18.034;2022-10-03T16:41:43;8.82;;;6.10;;
10823;SDS011;39116;59.332;18.034;2022-10-03T16:44:17;6.82;;;5.30;;
10823;SDS011;39116;59.332;18.034;2022-10-03T16:46:44;6.18;;;5.50;;
10823;SDS011;39116;59.332;18.034;2022-10-03T16:49:17;7.50;;;6.50;;
10823;SDS011;39116;59.332;18.034;2022-10-03T16:52:07;7.43;;;6.20;;
10823;SDS011;39116;59.332;18.034;2022-10-03T16:54:35;7.80;;;6.82;;
10823;SDS011;39116;59.332;18.034;2022-10-03T16:57:04;10.02;;;7.07;;
10823;SDS011;39116;59.332;18.034;2022-10-03T16:59:31;8.73;;;7.15;;
10823;SDS011;39116;59.332;18.034;2022-10-03T17:01:59;7.80;;;6.53;;
10823;SDS011;39116;59.332;18.034;2022-10-03T17:04:30;7.63;;;6.05;;
10823;SDS011;39116;59.332;18.034;2022-10-03T17:06:59;9.65;;;7.07;;
10823;SDS011;39116;59.332;18.034;2022-10-03T17:09:27;8.13;;;6.97;;
10823;SDS011;39116;59.332;18.034;2022-10-03T17:11:58;6.82;;;6.18;;
10823;SDS011;39116;59.332;18.034;2022-10-03T17:14:26;11.32;;;6.57;;
10823;SDS011;39116;59.332;18.034;2022-10-03T17:16:57;8.30;;;6.53;;
10823;SDS011;39116;59.332;18.034;2022-10-03T17:19:29;8.23;;;6.85;;
10823;SDS011;39116;59.332;18.034;2022-10-03T17:22:05;10.98;;;7.15;;
10823;SDS011;39116;59.332;18.034;2022-10-03T17:24:38;11.07;;;7.00;;
10823;SDS011;39116;59.332;18.034;2022-10-03T17:27:09;10.27;;;6.82;;
10823;SDS011;39116;59.332;18.034;2022-10-03T17:29:41;10.57;;;7.63;;
10823;SDS011;39116;59.332;18.034;2022-10-03T17:32:11;12.63;;;8.00;;
10823;SDS011;39116;59.332;18.034;2022-10-03T17:34:40;9.43;;;7.65;;
10823;SDS011;39116;59.332;18.034;2022-10-03T17:39:54;8.38;;;7.47;;
10823;SDS011;39116;59.332;18.034;2022-10-03T17:42:29;10.30;;;7.50;;
10823;SDS011;39116;59.332;18.034;2022-10-03T17:45:00;8.35;;;7.55;;
10823;SDS011;39116;59.332;18.034;2022-10-03T17:47:31;9.23;;;7.53;;
10823;SDS011;39116;59.332;18.034;2022-10-03T17:49:59;10.70;;;8.13;;
10823;SDS011;39116;59.332;18.034;2022-10-03T17:52:28;15.30;;;9.38;;